sensor_id;sensor_type;location;lat;lon;timestamp;P1;durP1;ratioP1;P2;durP2;ratioP2
50225;SDS011;36113;50.742;6.432;2023-11-18T00:00:21;18.13;;;12.50;;
50225;SDS011;36113;50.742;6.432;2023-11-18T00:02:46;17.52;;;12.55;;
50225;SDS011;36113;50.742;6.432;2023-11-18T00:05:12;21.58;;;13.88;;
50225;SDS011;36113;50.742;6.432;2023-11-18T00:07:37;23.77;;;14.05;;
50225;SDS011;36113;50.742;6.432;2023-11-18T00:10:03;18.88;;;12.95;;
50225;SDS011;36113;50.742;6.432;2023-11-18T00:12:30;23.98;;;13.38;;
50225;SDS011;36113;50.742;6.432;2023-11-18T00:14:55;22.40;;;13.95;;
50225;SDS011;36113;50.742;6.432;2023-11-18T00:17:20;20.52;;;13.18;;
50225;SDS011;36113;50.742;6.432;2023-11-18T00:19:46;19.25;;;14.05;;
50225;SDS011;36113;50.742;6.432;2023-11-18T00:22:12;23.25;;;12.02;;
50225;SDS011;36113;50.742;6.432;2023-11-18T00:24:37;18.40;;;11.68;;
50225;SDS011;36113;50.742;6.432;2023-11-18T00:27:03;19.10;;;12.70;;
50225;SDS011;36113;50.742;6.432;2023-11-18T00:29:35;17.50;;;12.43;;
50225;SDS011;36113;50.742;6.432;2023-11-18T00:32:00;22.33;;;13.65;;
50225;SDS011;36113;50.742;6.432;2023-11-18T00:34:26;22.02;;;11.68;;
50225;SDS011;36113;50.742;6.432;2023-11-18T00:36:53;23.35;;;12.57;;
50225;SDS011;36113;50.742;6.432;2023-11-18T00:39:18;19.20;;;12.65;;
50225;SDS011;36113;50.742;6.432;2023-11-18T00:41:45;20.08;;;13.57;;
50225;SDS011;36113;50.742;6.432;2023-11-18T00:44:10;18.73;;;12.25;;
50225;SDS011;36113;50.742;6.432;2023-11-18T00:46:38;21.80;;;14.00;;
50225;SDS011;36113;50.742;6.432;2023-11-18T00:49:03;24.02;;;14.73;;
50225;SDS011;36113;50.742;6.432;2023-11-18T00:51:30;24.23;;;14.60;;
50225;SDS011;36113;50.742;6.432;2023-11-18T00:53:55;25.55;;;14.68;;
50225;SDS011;36113;50.742;6.432;2023-11-18T00:56:20;23.08;;;13.98;;
50225;SDS011;36113;50.742;6.432;2023-11-18T00:58:47;23.90;;;13.93;;
50225;SDS011;36113;50.742;6.432;2023-11-18T01:01:12;21.97;;;14.27;;
50225;SDS011;36113;50.742;6.432;2023-11-18T01:03:38;23.08;;;13.40;;
50225;SDS011;36113;50.742;6.432;2023-11-18T01:06:03;26.05;;;15.23;;
50225;SDS011;36113;50.742;6.432;2023-11-18T01:08:31;22.92;;;14.35;;
50225;SDS011;36113;50.742;6.432;2023-11-18T01:10:56;23.48;;;14.40;;
50225;SDS011;36113;50.742;6.432;2023-11-18T01:13:21;22.52;;;13.07;;
50225;SDS011;36113;50.742;6.432;2023-11-18T01:15:47;22.40;;;13.70;;
50225;SDS011;36113;50.742;6.432;2023-11-18T01:20:39;22.40;;;14.38;;
50225;SDS011;36113;50.742;6.432;2023-11-18T01:23:05;24.27;;;14.52;;
50225;SDS011;36113;50.742;6.432;2023-11-18T01:25:30;22.13;;;14.02;;
50225;SDS011;36113;50.742;6.432;2023-11-18T01:27:56;22.20;;;14.43;;
50225;SDS011;36113;50.742;6.432;2023-11-18T01:30:21;25.13;;;14.23;;
50225;SDS011;36113;50.742;6.432;2023-11-18T01:32:48;25.75;;;13.52;;
50225;SDS011;36113;50.742;6.432;2023-11-18T01:35:14;21.92;;;13.68;;
50225;SDS011;36113;50.742;6.432;2023-11-18T01:37:39;21.27;;;13.73;;
50225;SDS011;36113;50.742;6.432;2023-11-18T01:40:05;20.42;;;13.27;;
50225;SDS011;36113;50.742;6.432;2023-11-18T01:42:32;20.63;;;14.60;;
50225;SDS011;36113;50.742;6.432;2023-11-18T01:44:58;18.30;;;12.02;;
50225;SDS011;36113;50.742;6.432;2023-11-18T01:47:24;20.77;;;11.95;;
50225;SDS011;36113;50.742;6.432;2023-11-18T01:49:51;19.05;;;12.63;;
50225;SDS011;36113;50.742;6.432;2023-11-18T01:52:17;16.98;;;12.85;;
50225;SDS011;36113;50.742;6.432;2023-11-18T01:54:43;19.77;;;12.20;;
50225;SDS011;36113;50.742;6.432;2023-11-18T01:57:09;19.50;;;12.73;;
50225;SDS011;36113;50.742;6.432;2023-11-18T01:59:35;16.08;;;11.32;;
50225;SDS011;36113;50.742;6.432;2023-11-18T02:02:03;17.23;;;11.05;;
50225;SDS011;36113;50.742;6.432;2023-11-18T02:04:29;16.83;;;10.85;;
50225;SDS011;36113;50.742;6.432;2023-11-18T02:06:55;17.88;;;11.30;;
50225;SDS011;36113;50.742;6.432;2023-11-18T02:09:21;20.08;;;11.05;;
50225;SDS011;36113;50.742;6.432;2023-11-18T02:11:57;15.73;;;11.38;;
50225;SDS011;36113;50.742;6.432;2023-11-18T02:14:24;18.02;;;11.20;;
50225;SDS011;36113;50.742;6.432;2023-11-18T02:16:52;16.25;;;10.90;;
50225;SDS011;36113;50.742;6.432;2023-11-18T02:19:21;20.10;;;11.60;;
50225;SDS011;36113;50.742;6.432;2023-11-18T02:21:49;18.08;;;10.65;;
50225;SDS011;36113;50.742;6.432;2023-11-18T02:24:29;13.32;;;10.07;;
50225;SDS011;36113;50.742;6.432;2023-11-18T02:27:01;16.25;;;10.10;;
50225;SDS011;36113;50.742;6.432;2023-11-18T02:29:32;16.53;;;11.07;;
50225;SDS011;36113;50.742;6.432;2023-11-18T02:32:03;14.90;;;10.68;;
50225;SDS011;36113;50.742;6.432;2023-11-18T02:34:33;15.05;;;10.20;;
50225;SDS011;36113;50.742;6.432;2023-11-18T02:37:03;12.68;;;9.23;;
50225;SDS011;36113;50.742;6.432;2023-11-18T02:39:36;16.25;;;10.40;;
50225;SDS011;36113;50.742;6.432;2023-11-18T02:42:06;13.65;;;10.18;;
50225;SDS011;36113;50.742;6.432;2023-11-18T02:44:37;19.73;;;11.43;;
50225;SDS011;36113;50.742;6.432;2023-11-18T02:47:03;18.77;;;10.85;;
50225;SDS011;36113;50.742;6.432;2023-11-18T02:49:34;19.08;;;11.43;;
50225;SDS011;36113;50.742;6.432;2023-11-18T02:52:00;15.48;;;10.85;;
50225;SDS011;36113;50.742;6.432;2023-11-18T02:54:25;19.40;;;11.45;;
50225;SDS011;36113;50.742;6.432;2023-11-18T02:56:51;14.95;;;10.32;;
50225;SDS011;36113;50.742;6.432;2023-11-18T02:59:16;18.02;;;12.13;;
50225;SDS011;36113;50.742;6.432;2023-11-18T03:01:42;15.68;;;11.50;;
50225;SDS011;36113;50.742;6.432;2023-11-18T03:04:07;18.15;;;11.10;;
50225;SDS011;36113;50.742;6.432;2023-11-18T03:06:33;18.73;;;11.60;;
50225;SDS011;36113;50.742;6.432;2023-11-18T03:09:00;18.15;;;10.52;;
50225;SDS011;36113;50.742;6.432;2023-11-18T03:11:26;15.68;;;9.35;;
50225;SDS011;36113;50.742;6.432;2023-11-18T03:13:54;16.27;;;9.63;;
50225;SDS011;36113;50.742;6.432;2023-11-18T03:16:20;12.38;;;8.57;;
50225;SDS011;36113;50.742;6.432;2023-11-18T03:18:45;12.07;;;8.10;;
50225;SDS011;36113;50.742;6.432;2023-11-18T03:21:14;8.88;;;7.25;;
50225;SDS011;36113;50.742;6.432;2023-11-18T03:23:39;9.13;;;7.65;;
50225;SDS011;36113;50.742;6.432;2023-11-18T03:26:06;12.27;;;8.15;;
50225;SDS011;36113;50.742;6.432;2023-11-18T03:28:31;11.25;;;7.85;;
50225;SDS011;36113;50.742;6.432;2023-11-18T03:30:57;13.93;;;8.77;;
50225;SDS011;36113;50.742;6.432;2023-11-18T03:33:22;14.85;;;8.02;;
50225;SDS011;36113;50.742;6.432;2023-11-18T03:35:48;10.60;;;8.18;;
50225;SDS011;36113;50.742;6.432;2023-11-18T03:38:14;13.77;;;9.07;;
50225;SDS011;36113;50.742;6.432;2023-11-18T03:40:40;11.50;;;8.65;;
50225;SDS011;36113;50.742;6.432;2023-11-18T03:43:06;13.75;;;8.32;;
50225;SDS011;36113;50.742;6.432;2023-11-18T03:45:32;11.90;;;8.47;;
50225;SDS011;36113;50.742;6.432;2023-11-18T03:47:58;12.32;;;7.35;;
50225;SDS011;36113;50.742;6.432;2023-11-18T03:50:25;9.65;;;7.97;;
50225;SDS011;36113;50.742;6.432;2023-11-18T03:52:51;12.73;;;8.43;;
50225;SDS011;36113;50.742;6.432;2023-11-18T03:55:16;9.60;;;7.38;;
50225;SDS011;36113;50.742;6.432;2023-11-18T03:57:43;10.98;;;8.27;;
50225;SDS011;36113;50.742;6.432;2023-11-18T04:00:10;12.25;;;7.93;;
50225;SDS011;36113;50.742;6.432;2023-11-18T04:02:36;10.52;;;7.47;;
50225;SDS011;36113;50.742;6.432;2023-11-18T04:05:02;14.83;;;7.90;;
50225;SDS011;36113;50.742;6.432;2023-11-18T04:07:29;13.23;;;7.85;;
50225;SDS011;36113;50.742;6.432;2023-11-18T04:09:54;13.23;;;8.50;;
50225;SDS011;36113;50.742;6.432;2023-11-18T04:12:19;10.85;;;7.32;;
50225;SDS011;36113;50.742;6.432;2023-11-18T04:14:45;10.38;;;7.82;;
50225;SDS011;36113;50.742;6.432;2023-11-18T04:17:10;12.52;;;7.82;;
50225;SDS011;36113;50.742;6.432;2023-11-18T04:19:35;11.45;;;8.10;;
50225;SDS011;36113;50.742;6.432;2023-11-18T04:22:02;8.88;;;7.70;;
50225;SDS011;36113;50.742;6.432;2023-11-18T04:24:27;12.00;;;8.80;;
50225;SDS011;36113;50.742;6.432;2023-11-18T04:26:52;12.38;;;8.00;;
50225;SDS011;36113;50.742;6.432;2023-11-18T04:29:20;13.05;;;8.82;;
50225;SDS011;36113;50.742;6.432;2023-11-18T04:31:46;10.90;;;7.50;;
50225;SDS011;36113;50.742;6.432;2023-11-18T04:34:11;14.40;;;7.95;;
50225;SDS011;36113;50.742;6.432;2023-11-18T04:36:37;13.82;;;8.38;;
50225;SDS011;36113;50.742;6.432;2023-11-18T04:39:02;11.63;;;8.23;;
50225;SDS011;36113;50.742;6.432;2023-11-18T04:41:28;12.50;;;8.48;;
50225;SDS011;36113;50.742;6.432;2023-11-18T04:43:53;12.10;;;8.68;;
50225;SDS011;36113;50.742;6.432;2023-11-18T04:46:19;15.60;;;8.60;;
50225;SDS011;36113;50.742;6.432;2023-11-18T04:48:44;13.88;;;8.77;;
50225;SDS011;36113;50.742;6.432;2023-11-18T04:51:09;12.15;;;8.15;;
50225;SDS011;36113;50.742;6.432;2023-11-18T04:53:36;10.55;;;8.23;;
50225;SDS011;36113;50.742;6.432;2023-11-18T04:56:01;13.48;;;8.25;;
50225;SDS011;36113;50.742;6.432;2023-11-18T04:58:27;13.32;;;8.73;;
50225;SDS011;36113;50.742;6.432;2023-11-18T05:00:53;11.15;;;8.90;;
50225;SDS011;36113;50.742;6.432;2023-11-18T05:03:18;10.35;;;8.45;;
50225;SDS011;36113;50.742;6.432;2023-11-18T05:05:44;14.10;;;8.10;;
50225;SDS011;36113;50.742;6.432;2023-11-18T05:08:17;10.95;;;8.38;;
50225;SDS011;36113;50.742;6.432;2023-11-18T05:10:47;11.13;;;8.10;;
50225;SDS011;36113;50.742;6.432;2023-11-18T05:13:14;9.93;;;7.97;;
50225;SDS011;36113;50.742;6.432;2023-11-18T05:15:41;12.73;;;7.93;;
50225;SDS011;36113;50.742;6.432;2023-11-18T05:18:10;9.48;;;7.03;;
50225;SDS011;36113;50.742;6.432;2023-11-18T05:20:38;12.38;;;8.07;;
50225;SDS011;36113;50.742;6.432;2023-11-18T05:23:04;9.70;;;7.03;;
50225;SDS011;36113;50.742;6.432;2023-11-18T05:25:29;11.27;;;6.18;;
50225;SDS011;36113;50.742;6.432;2023-11-18T05:27:55;11.55;;;6.82;;
50225;SDS011;36113;50.742;6.432;2023-11-18T05:30:20;8.52;;;6.15;;
50225;SDS011;36113;50.742;6.432;2023-11-18T05:32:45;8.68;;;5.50;;
50225;SDS011;36113;50.742;6.432;2023-11-18T05:35:10;5.82;;;5.22;;
50225;SDS011;36113;50.742;6.432;2023-11-18T05:37:37;7.47;;;5.32;;
50225;SDS011;36113;50.742;6.432;2023-11-18T05:40:06;6.75;;;5.18;;
50225;SDS011;36113;50.742;6.432;2023-11-18T05:42:32;5.37;;;4.77;;
50225;SDS011;36113;50.742;6.432;2023-11-18T05:45:01;6.28;;;4.85;;
50225;SDS011;36113;50.742;6.432;2023-11-18T05:47:27;6.57;;;5.25;;
50225;SDS011;36113;50.742;6.432;2023-11-18T05:49:52;5.47;;;4.43;;
50225;SDS011;36113;50.742;6.432;2023-11-18T05:52:18;7.78;;;5.40;;
50225;SDS011;36113;50.742;6.432;2023-11-18T05:57:12;6.85;;;4.20;;
50225;SDS011;36113;50.742;6.432;2023-11-18T05:59:37;8.15;;;4.50;;
50225;SDS011;36113;50.742;6.432;2023-11-18T06:02:03;9.07;;;5.22;;
50225;SDS011;36113;50.742;6.432;2023-11-18T06:04:28;6.63;;;4.70;;
50225;SDS011;36113;50.742;6.432;2023-11-18T06:06:54;6.35;;;3.58;;
50225;SDS011;36113;50.742;6.432;2023-11-18T06:09:19;5.05;;;4.05;;
50225;SDS011;36113;50.742;6.432;2023-11-18T06:11:48;10.02;;;4.22;;
50225;SDS011;36113;50.742;6.432;2023-11-18T06:14:14;9.70;;;4.35;;
50225;SDS011;36113;50.742;6.432;2023-11-18T06:16:40;5.85;;;3.80;;
50225;SDS011;36113;50.742;6.432;2023-11-18T06:19:05;6.75;;;3.88;;
50225;SDS011;36113;50.742;6.432;2023-11-18T06:21:31;4.93;;;4.05;;
50225;SDS011;36113;50.742;6.432;2023-11-18T06:23:59;4.55;;;3.97;;
50225;SDS011;36113;50.742;6.432;2023-11-18T06:26:26;6.53;;;4.30;;
50225;SDS011;36113;50.742;6.432;2023-11-18T06:28:52;9.70;;;4.75;;
50225;SDS011;36113;50.742;6.432;2023-11-18T06:31:19;7.28;;;4.30;;
50225;SDS011;36113;50.742;6.432;2023-11-18T06:33:45;10.37;;;4.87;;
50225;SDS011;36113;50.742;6.432;2023-11-18T06:38:43;4.68;;;4.00;;
50225;SDS011;36113;50.742;6.432;2023-11-18T06:41:10;7.93;;;5.00;;
50225;SDS011;36113;50.742;6.432;2023-11-18T06:43:40;7.72;;;4.60;;
50225;SDS011;36113;50.742;6.432;2023-11-18T06:46:17;8.25;;;4.38;;
50225;SDS011;36113;50.742;6.432;2023-11-18T06:48:45;6.80;;;4.22;;
50225;SDS011;36113;50.742;6.432;2023-11-18T06:51:13;7.15;;;4.05;;
50225;SDS011;36113;50.742;6.432;2023-11-18T06:53:40;13.90;;;4.25;;
50225;SDS011;36113;50.742;6.432;2023-11-18T06:56:05;5.70;;;3.30;;
50225;SDS011;36113;50.742;6.432;2023-11-18T06:58:31;5.22;;;3.92;;
50225;SDS011;36113;50.742;6.432;2023-11-18T07:00:57;12.93;;;4.85;;
50225;SDS011;36113;50.742;6.432;2023-11-18T07:03:22;4.57;;;3.58;;
50225;SDS011;36113;50.742;6.432;2023-11-18T07:05:48;4.43;;;3.58;;
50225;SDS011;36113;50.742;6.432;2023-11-18T07:08:14;6.18;;;3.45;;
50225;SDS011;36113;50.742;6.432;2023-11-18T07:10:40;3.63;;;2.83;;
50225;SDS011;36113;50.742;6.432;2023-11-18T07:13:05;13.83;;;3.77;;
50225;SDS011;36113;50.742;6.432;2023-11-18T07:15:33;7.90;;;3.40;;
50225;SDS011;36113;50.742;6.432;2023-11-18T07:17:59;8.65;;;3.97;;
50225;SDS011;36113;50.742;6.432;2023-11-18T07:20:24;4.60;;;2.63;;
50225;SDS011;36113;50.742;6.432;2023-11-18T07:22:49;4.78;;;2.95;;
50225;SDS011;36113;50.742;6.432;2023-11-18T07:25:15;3.75;;;2.88;;
50225;SDS011;36113;50.742;6.432;2023-11-18T07:27:48;3.60;;;3.00;;
50225;SDS011;36113;50.742;6.432;2023-11-18T07:30:14;7.35;;;3.92;;
50225;SDS011;36113;50.742;6.432;2023-11-18T07:32:39;6.35;;;3.15;;
50225;SDS011;36113;50.742;6.432;2023-11-18T07:35:05;8.63;;;3.22;;
50225;SDS011;36113;50.742;6.432;2023-11-18T07:37:34;6.20;;;3.72;;
50225;SDS011;36113;50.742;6.432;2023-11-18T07:40:00;8.30;;;3.50;;
50225;SDS011;36113;50.742;6.432;2023-11-18T07:42:25;6.35;;;3.22;;
50225;SDS011;36113;50.742;6.432;2023-11-18T07:44:51;5.20;;;3.42;;
50225;SDS011;36113;50.742;6.432;2023-11-18T07:47:16;4.25;;;3.15;;
50225;SDS011;36113;50.742;6.432;2023-11-18T07:49:42;6.72;;;3.75;;
50225;SDS011;36113;50.742;6.432;2023-11-18T07:52:07;5.07;;;3.20;;
50225;SDS011;36113;50.742;6.432;2023-11-18T07:54:32;5.57;;;3.05;;
50225;SDS011;36113;50.742;6.432;2023-11-18T07:56:58;4.63;;;2.92;;
50225;SDS011;36113;50.742;6.432;2023-11-18T07:59:23;6.30;;;2.60;;
50225;SDS011;36113;50.742;6.432;2023-11-18T08:01:49;7.50;;;2.88;;
50225;SDS011;36113;50.742;6.432;2023-11-18T08:04:15;3.03;;;2.50;;
50225;SDS011;36113;50.742;6.432;2023-11-18T08:06:40;6.78;;;3.22;;
50225;SDS011;36113;50.742;6.432;2023-11-18T08:09:08;9.23;;;3.45;;
50225;SDS011;36113;50.742;6.432;2023-11-18T08:11:36;3.15;;;2.85;;
50225;SDS011;36113;50.742;6.432;2023-11-18T08:14:02;4.50;;;2.83;;
50225;SDS011;36113;50.742;6.432;2023-11-18T08:16:28;7.95;;;3.03;;
50225;SDS011;36113;50.742;6.432;2023-11-18T08:18:54;3.83;;;2.22;;
50225;SDS011;36113;50.742;6.432;2023-11-18T08:21:20;3.60;;;2.60;;
50225;SDS011;36113;50.742;6.432;2023-11-18T08:23:47;6.18;;;3.08;;
50225;SDS011;36113;50.742;6.432;2023-11-18T08:26:12;6.57;;;3.05;;
50225;SDS011;36113;50.742;6.432;2023-11-18T08:28:38;3.75;;;2.97;;
50225;SDS011;36113;50.742;6.432;2023-11-18T08:31:04;5.55;;;2.70;;
50225;SDS011;36113;50.742;6.432;2023-11-18T08:35:56;5.97;;;2.90;;
50225;SDS011;36113;50.742;6.432;2023-11-18T08:38:22;2.60;;;2.40;;
50225;SDS011;36113;50.742;6.432;2023-11-18T08:40:47;7.15;;;3.13;;
50225;SDS011;36113;50.742;6.432;2023-11-18T08:43:15;3.47;;;2.17;;
50225;SDS011;36113;50.742;6.432;2023-11-18T08:45:41;4.85;;;2.97;;
50225;SDS011;36113;50.742;6.432;2023-11-18T08:48:06;9.50;;;3.08;;
50225;SDS011;36113;50.742;6.432;2023-11-18T08:50:32;3.28;;;2.83;;
50225;SDS011;36113;50.742;6.432;2023-11-18T08:52:59;9.38;;;2.78;;
50225;SDS011;36113;50.742;6.432;2023-11-18T08:55:28;7.10;;;2.92;;
50225;SDS011;36113;50.742;6.432;2023-11-18T08:58:11;7.82;;;2.75;;
50225;SDS011;36113;50.742;6.432;2023-11-18T09:00:57;6.78;;;2.55;;
50225;SDS011;36113;50.742;6.432;2023-11-18T09:03:41;6.63;;;2.97;;
50225;SDS011;36113;50.742;6.432;2023-11-18T09:06:17;4.35;;;2.80;;
50225;SDS011;36113;50.742;6.432;2023-11-18T09:08:42;6.40;;;3.00;;
50225;SDS011;36113;50.742;6.432;2023-11-18T09:11:09;4.65;;;2.60;;
50225;SDS011;36113;50.742;6.432;2023-11-18T09:13:36;6.05;;;3.08;;
50225;SDS011;36113;50.742;6.432;2023-11-18T09:16:04;6.75;;;2.97;;
50225;SDS011;36113;50.742;6.432;2023-11-18T09:18:34;5.53;;;3.38;;
50225;SDS011;36113;50.742;6.432;2023-11-18T09:21:01;6.80;;;2.80;;
50225;SDS011;36113;50.742;6.432;2023-11-18T09:23:28;5.03;;;3.17;;
50225;SDS011;36113;50.742;6.432;2023-11-18T09:25:54;3.23;;;2.60;;
50225;SDS011;36113;50.742;6.432;2023-11-18T09:28:20;7.07;;;3.28;;
50225;SDS011;36113;50.742;6.432;2023-11-18T09:30:47;5.43;;;2.88;;
50225;SDS011;36113;50.742;6.432;2023-11-18T09:33:19;4.75;;;3.13;;
50225;SDS011;36113;50.742;6.432;2023-11-18T09:35:56;4.38;;;3.17;;
50225;SDS011;36113;50.742;6.432;2023-11-18T09:38:45;7.43;;;2.60;;
50225;SDS011;36113;50.742;6.432;2023-11-18T09:41:11;5.72;;;2.65;;
50225;SDS011;36113;50.742;6.432;2023-11-18T09:43:37;3.33;;;2.58;;
50225;SDS011;36113;50.742;6.432;2023-11-18T09:51:17;9.68;;;3.47;;
50225;SDS011;36113;50.742;6.432;2023-11-18T09:53:46;2.38;;;2.08;;
50225;SDS011;36113;50.742;6.432;2023-11-18T09:56:19;6.85;;;3.15;;
50225;SDS011;36113;50.742;6.432;2023-11-18T09:59:05;8.18;;;3.30;;
50225;SDS011;36113;50.742;6.432;2023-11-18T10:01:40;5.60;;;3.25;;
50225;SDS011;36113;50.742;6.432;2023-11-18T10:04:09;9.55;;;3.83;;
50225;SDS011;36113;50.742;6.432;2023-11-18T10:06:36;5.75;;;3.20;;
50225;SDS011;36113;50.742;6.432;2023-11-18T10:09:03;5.47;;;3.33;;
50225;SDS011;36113;50.742;6.432;2023-11-18T10:11:40;8.05;;;3.83;;
50225;SDS011;36113;50.742;6.432;2023-11-18T10:14:11;6.60;;;3.63;;
50225;SDS011;36113;50.742;6.432;2023-11-18T10:16:43;4.55;;;3.08;;
50225;SDS011;36113;50.742;6.432;2023-11-18T10:19:12;6.75;;;3.30;;
50225;SDS011;36113;50.742;6.432;2023-11-18T10:21:39;6.00;;;3.10;;
50225;SDS011;36113;50.742;6.432;2023-11-18T10:24:05;5.78;;;2.58;;
50225;SDS011;36113;50.742;6.432;2023-11-18T10:26:39;4.93;;;2.85;;
50225;SDS011;36113;50.742;6.432;2023-11-18T10:29:04;8.65;;;3.72;;
50225;SDS011;36113;50.742;6.432;2023-11-18T10:31:33;5.65;;;3.05;;
50225;SDS011;36113;50.742;6.432;2023-11-18T10:34:00;7.15;;;2.85;;
50225;SDS011;36113;50.742;6.432;2023-11-18T10:36:26;6.50;;;3.28;;
50225;SDS011;36113;50.742;6.432;2023-11-18T10:38:52;6.93;;;2.97;;
50225;SDS011;36113;50.742;6.432;2023-11-18T10:41:20;7.75;;;3.22;;
50225;SDS011;36113;50.742;6.432;2023-11-18T10:43:46;4.55;;;2.97;;
50225;SDS011;36113;50.742;6.432;2023-11-18T10:46:13;4.25;;;2.83;;
50225;SDS011;36113;50.742;6.432;2023-11-18T10:51:07;8.10;;;3.58;;
50225;SDS011;36113;50.742;6.432;2023-11-18T10:53:37;4.63;;;3.30;;
50225;SDS011;36113;50.742;6.432;2023-11-18T10:56:18;6.07;;;3.67;;
50225;SDS011;36113;50.742;6.432;2023-11-18T11:01:33;7.20;;;3.58;;
50225;SDS011;36113;50.742;6.432;2023-11-18T11:04:04;5.85;;;3.30;;
50225;SDS011;36113;50.742;6.432;2023-11-18T11:06:30;4.95;;;2.40;;
50225;SDS011;36113;50.742;6.432;2023-11-18T11:08:57;5.85;;;2.92;;
50225;SDS011;36113;50.742;6.432;2023-11-18T11:11:27;4.38;;;2.35;;
50225;SDS011;36113;50.742;6.432;2023-11-18T11:14:03;5.32;;;2.40;;
50225;SDS011;36113;50.742;6.432;2023-11-18T11:16:51;3.70;;;1.77;;
50225;SDS011;36113;50.742;6.432;2023-11-18T11:22:00;3.15;;;1.95;;
50225;SDS011;36113;50.742;6.432;2023-11-18T11:24:36;3.60;;;2.20;;
50225;SDS011;36113;50.742;6.432;2023-11-18T11:27:25;5.70;;;2.20;;
50225;SDS011;36113;50.742;6.432;2023-11-18T11:30:15;3.88;;;1.92;;
50225;SDS011;36113;50.742;6.432;2023-11-18T11:32:52;11.77;;;2.33;;
50225;SDS011;36113;50.742;6.432;2023-11-18T11:35:26;3.22;;;2.08;;
50225;SDS011;36113;50.742;6.432;2023-11-18T11:37:56;5.03;;;1.95;;
50225;SDS011;36113;50.742;6.432;2023-11-18T11:40:27;5.03;;;2.72;;
50225;SDS011;36113;50.742;6.432;2023-11-18T11:45:21;5.50;;;2.13;;
50225;SDS011;36113;50.742;6.432;2023-11-18T11:47:54;6.00;;;1.90;;
50225;SDS011;36113;50.742;6.432;2023-11-18T11:50:37;1.75;;;1.65;;
50225;SDS011;36113;50.742;6.432;2023-11-18T11:53:15;2.33;;;1.58;;
50225;SDS011;36113;50.742;6.432;2023-11-18T11:55:46;2.38;;;1.67;;
50225;SDS011;36113;50.742;6.432;2023-11-18T11:58:28;4.22;;;2.88;;
50225;SDS011;36113;50.742;6.432;2023-11-18T12:01:01;3.65;;;2.20;;
50225;SDS011;36113;50.742;6.432;2023-11-18T12:03:33;4.40;;;2.10;;
50225;SDS011;36113;50.742;6.432;2023-11-18T12:06:08;2.63;;;2.10;;
50225;SDS011;36113;50.742;6.432;2023-11-18T12:08:36;2.65;;;1.60;;
50225;SDS011;36113;50.742;6.432;2023-11-18T12:11:02;2.65;;;1.55;;
50225;SDS011;36113;50.742;6.432;2023-11-18T12:13:30;1.73;;;1.42;;
50225;SDS011;36113;50.742;6.432;2023-11-18T12:15:59;3.63;;;2.15;;
50225;SDS011;36113;50.742;6.432;2023-11-18T12:18:29;2.85;;;1.67;;
50225;SDS011;36113;50.742;6.432;2023-11-18T12:21:01;2.15;;;0.93;;
50225;SDS011;36113;50.742;6.432;2023-11-18T12:23:28;2.65;;;1.52;;
50225;SDS011;36113;50.742;6.432;2023-11-18T12:25:55;1.73;;;1.33;;
50225;SDS011;36113;50.742;6.432;2023-11-18T12:30:55;2.53;;;1.73;;
50225;SDS011;36113;50.742;6.432;2023-11-18T12:33:25;3.25;;;1.50;;
50225;SDS011;36113;50.742;6.432;2023-11-18T12:41:38;1.25;;;1.25;;
50225;SDS011;36113;50.742;6.432;2023-11-18T12:49:15;1.70;;;1.10;;
50225;SDS011;36113;50.742;6.432;2023-11-18T12:51:49;1.58;;;1.10;;
50225;SDS011;36113;50.742;6.432;2023-11-18T12:54:21;1.40;;;1.15;;
50225;SDS011;36113;50.742;6.432;2023-11-18T12:56:50;1.35;;;1.23;;
50225;SDS011;36113;50.742;6.432;2023-11-18T12:59:18;1.80;;;1.70;;
50225;SDS011;36113;50.742;6.432;2023-11-18T13:01:52;1.85;;;0.90;;
50225;SDS011;36113;50.742;6.432;2023-11-18T13:04:24;2.25;;;1.13;;
50225;SDS011;36113;50.742;6.432;2023-11-18T13:06:50;1.20;;;1.20;;
50225;SDS011;36113;50.742;6.432;2023-11-18T13:09:16;3.07;;;1.10;;
50225;SDS011;36113;50.742;6.432;2023-11-18T13:11:55;1.05;;;1.05;;
50225;SDS011;36113;50.742;6.432;2023-11-18T13:14:25;1.95;;;1.20;;
50225;SDS011;36113;50.742;6.432;2023-11-18T13:16:52;2.65;;;1.58;;
50225;SDS011;36113;50.742;6.432;2023-11-18T13:19:28;2.25;;;1.52;;
50225;SDS011;36113;50.742;6.432;2023-11-18T13:21:58;3.05;;;1.33;;
50225;SDS011;36113;50.742;6.432;2023-11-18T13:24:24;1.55;;;0.93;;
50225;SDS011;36113;50.742;6.432;2023-11-18T13:26:55;1.50;;;1.40;;
50225;SDS011;36113;50.742;6.432;2023-11-18T13:29:22;1.35;;;1.20;;
50225;SDS011;36113;50.742;6.432;2023-11-18T13:34:16;1.13;;;0.93;;
50225;SDS011;36113;50.742;6.432;2023-11-18T13:36:42;0.80;;;0.80;;
50225;SDS011;36113;50.742;6.432;2023-11-18T13:39:09;1.47;;;0.90;;
50225;SDS011;36113;50.742;6.432;2023-11-18T13:41:42;0.85;;;0.80;;
50225;SDS011;36113;50.742;6.432;2023-11-18T13:44:07;2.85;;;1.60;;
50225;SDS011;36113;50.742;6.432;2023-11-18T13:46:37;10.38;;;5.80;;
50225;SDS011;36113;50.742;6.432;2023-11-18T13:49:05;2.90;;;2.25;;
50225;SDS011;36113;50.742;6.432;2023-11-18T13:51:30;2.83;;;2.63;;
50225;SDS011;36113;50.742;6.432;2023-11-18T13:53:56;3.47;;;2.67;;
50225;SDS011;36113;50.742;6.432;2023-11-18T13:56:24;4.05;;;2.65;;
50225;SDS011;36113;50.742;6.432;2023-11-18T13:58:52;18.45;;;9.18;;
50225;SDS011;36113;50.742;6.432;2023-11-18T14:01:18;18.23;;;9.90;;
50225;SDS011;36113;50.742;6.432;2023-11-18T14:03:43;11.80;;;9.52;;
50225;SDS011;36113;50.742;6.432;2023-11-18T14:06:09;4.15;;;3.63;;
50225;SDS011;36113;50.742;6.432;2023-11-18T14:08:42;5.65;;;5.00;;
50225;SDS011;36113;50.742;6.432;2023-11-18T14:11:08;1.50;;;1.40;;
50225;SDS011;36113;50.742;6.432;2023-11-18T14:13:34;2.47;;;2.30;;
50225;SDS011;36113;50.742;6.432;2023-11-18T14:16:01;1.90;;;1.80;;
50225;SDS011;36113;50.742;6.432;2023-11-18T14:18:27;3.03;;;2.83;;
50225;SDS011;36113;50.742;6.432;2023-11-18T14:20:52;1.67;;;1.60;;
50225;SDS011;36113;50.742;6.432;2023-11-18T14:23:18;1.90;;;1.73;;
50225;SDS011;36113;50.742;6.432;2023-11-18T14:25:44;1.13;;;1.02;;
50225;SDS011;36113;50.742;6.432;2023-11-18T14:28:13;3.53;;;3.00;;
50225;SDS011;36113;50.742;6.432;2023-11-18T14:30:38;1.45;;;1.35;;
50225;SDS011;36113;50.742;6.432;2023-11-18T14:33:05;1.27;;;1.20;;
50225;SDS011;36113;50.742;6.432;2023-11-18T14:35:31;0.70;;;0.70;;
50225;SDS011;36113;50.742;6.432;2023-11-18T14:37:57;0.82;;;0.82;;
50225;SDS011;36113;50.742;6.432;2023-11-18T14:40:22;0.65;;;0.65;;
50225;SDS011;36113;50.742;6.432;2023-11-18T14:42:51;1.60;;;1.50;;
50225;SDS011;36113;50.742;6.432;2023-11-18T14:45:17;1.33;;;1.30;;
50225;SDS011;36113;50.742;6.432;2023-11-18T14:47:42;0.77;;;0.77;;
50225;SDS011;36113;50.742;6.432;2023-11-18T14:50:12;1.00;;;1.00;;
50225;SDS011;36113;50.742;6.432;2023-11-18T14:52:45;0.90;;;0.90;;
50225;SDS011;36113;50.742;6.432;2023-11-18T14:55:11;1.02;;;0.93;;
50225;SDS011;36113;50.742;6.432;2023-11-18T14:57:42;0.90;;;0.90;;
50225;SDS011;36113;50.742;6.432;2023-11-18T15:00:09;1.05;;;1.05;;
50225;SDS011;36113;50.742;6.432;2023-11-18T15:02:46;1.33;;;0.90;;
50225;SDS011;36113;50.742;6.432;2023-11-18T15:05:14;0.70;;;0.70;;
50225;SDS011;36113;50.742;6.432;2023-11-18T15:07:43;0.73;;;0.73;;
50225;SDS011;36113;50.742;6.432;2023-11-18T15:12:35;0.90;;;0.90;;
50225;SDS011;36113;50.742;6.432;2023-11-18T15:15:02;3.75;;;1.38;;
50225;SDS011;36113;50.742;6.432;2023-11-18T15:17:29;1.60;;;1.60;;
50225;SDS011;36113;50.742;6.432;2023-11-18T15:19:54;1.23;;;1.23;;
50225;SDS011;36113;50.742;6.432;2023-11-18T15:22:20;0.90;;;0.90;;
50225;SDS011;36113;50.742;6.432;2023-11-18T15:24:48;4.47;;;1.00;;
50225;SDS011;36113;50.742;6.432;2023-11-18T15:27:13;0.80;;;0.80;;